Hiland, Wyoming
Current Conditions -  °F | °C
As of 4:53 PM on Wednesday 26 Nov 2014 (Local Time) from KCPR Reporting Station
Broken Clouds Broken Clouds  
Wind Chill: 18°   Ceiling: 11000
Heat Index: 24°   Visibility: 10mi
Dew Point: 19°   Wind: 5mph
Humidity: 81%   Direction: 110°ESE
Pressure: 30.17"   Gusts: NA
Location:  43.12°N, 107.35°W
Report Text: KCPR 262353Z 11004KT 10SM BKN110 M04/M07 A3017 RMK AO2 SLP260 T10441072 10006 21050 53012
Loading
Personal Weather Stations






























Interactive Weather Map New forecast layout! Learn more

10-Day Weather Forecast

Advertisements
Track Severe Weather on mobile